createdAt,value
2023-05-14T00:01:32.503Z,100.00
2023-05-14T00:04:35.327Z,100.00
2023-05-14T00:07:37.710Z,100.00
2023-05-14T00:10:40.275Z,100.00
2023-05-14T00:13:42.576Z,100.00
2023-05-14T00:16:45.147Z,100.00
2023-05-14T00:19:47.419Z,100.00
2023-05-14T00:22:49.999Z,100.00
2023-05-14T00:25:52.276Z,100.00
2023-05-14T00:28:54.864Z,100.00
2023-05-14T00:31:57.146Z,100.00
2023-05-14T00:34:59.802Z,100.00
2023-05-14T00:38:02.796Z,100.00
2023-05-14T00:41:05.318Z,100.00
2023-05-14T00:44:07.702Z,100.00
2023-05-14T00:47:10.547Z,100.00
2023-05-14T00:50:14.915Z,100.00
2023-05-14T00:53:18.713Z,100.00
2023-05-14T00:56:21.408Z,100.00
2023-05-14T00:59:24.052Z,100.00
2023-05-14T01:02:26.502Z,100.00
2023-05-14T01:05:31.166Z,100.00
2023-05-14T01:08:51.994Z,100.00
2023-05-14T01:11:54.594Z,100.00
2023-05-14T01:15:01.885Z,100.00
2023-05-14T01:18:07.378Z,100.00
2023-05-14T01:21:25.075Z,100.00
2023-05-14T01:24:27.604Z,100.00
2023-05-14T01:27:30.469Z,100.00
2023-05-14T01:30:36.779Z,100.00
2023-05-14T01:33:42.321Z,100.00
2023-05-14T01:36:45.138Z,100.00
2023-05-14T01:39:48.491Z,100.00
2023-05-14T01:42:54.377Z,100.00
2023-05-14T01:45:56.833Z,100.00
2023-05-14T01:49:01.223Z,100.00
2023-05-14T01:52:03.663Z,100.00
2023-05-14T01:55:06.539Z,100.00
2023-05-14T01:58:08.901Z,100.00
2023-05-14T02:01:11.492Z,100.00
2023-05-14T02:04:14.226Z,100.00
2023-05-14T02:07:17.076Z,100.00
2023-05-14T02:10:21.415Z,100.00
2023-05-14T02:13:26.020Z,100.00
2023-05-14T02:16:28.300Z,100.00
2023-05-14T02:19:31.279Z,100.00
2023-05-14T02:22:33.719Z,100.00
2023-05-14T02:25:36.792Z,100.00
2023-05-14T02:28:39.157Z,100.00
2023-05-14T02:31:41.890Z,100.00
2023-05-14T02:34:44.237Z,100.00
2023-05-14T02:37:47.183Z,100.00
2023-05-14T02:40:49.446Z,100.00
2023-05-14T02:43:52.317Z,100.00
2023-05-14T02:46:54.650Z,100.00
2023-05-14T02:49:57.271Z,100.00
2023-05-14T02:53:00.066Z,100.00
2023-05-14T02:56:03.073Z,100.00
2023-05-14T02:59:05.409Z,100.00
2023-05-14T03:02:08.480Z,100.00
2023-05-14T03:05:11.468Z,100.00
2023-05-14T03:08:14.501Z,100.00
2023-05-14T03:11:16.916Z,100.00
2023-05-14T03:14:19.462Z,100.00
2023-05-14T03:17:21.791Z,100.00
2023-05-14T03:20:24.943Z,100.00
2023-05-14T03:23:28.316Z,100.00
2023-05-14T03:26:30.904Z,100.00
2023-05-14T03:29:33.206Z,100.00
2023-05-14T03:32:37.473Z,100.00
2023-05-14T03:35:39.886Z,100.00
2023-05-14T03:38:42.529Z,100.00
2023-05-14T03:41:44.883Z,100.00
2023-05-14T03:44:47.531Z,100.00
2023-05-14T03:47:49.928Z,100.00
2023-05-14T03:50:52.589Z,100.00
2023-05-14T03:53:55.188Z,100.00
2023-05-14T03:56:57.809Z,100.00
2023-05-14T04:00:00.209Z,100.00
2023-05-14T04:03:02.922Z,100.00
2023-05-14T04:06:05.749Z,100.00
2023-05-14T04:09:08.057Z,100.00
2023-05-14T04:12:10.799Z,100.00
2023-05-14T04:15:13.257Z,100.00
2023-05-14T04:18:15.961Z,100.00
2023-05-14T04:21:18.374Z,100.00
2023-05-14T04:24:21.003Z,100.00
2023-05-14T04:27:23.423Z,100.00
2023-05-14T04:30:26.432Z,100.00
2023-05-14T04:33:29.037Z,100.00
2023-05-14T04:36:31.747Z,100.00
2023-05-14T04:39:34.030Z,100.00
2023-05-14T04:42:37.126Z,100.00
2023-05-14T04:45:40.986Z,100.00
2023-05-14T04:48:43.681Z,100.00
2023-05-14T04:51:46.139Z,100.00
2023-05-14T04:54:48.793Z,100.00
2023-05-14T04:57:51.260Z,100.00
2023-05-14T05:00:53.983Z,100.00
2023-05-14T05:03:57.795Z,100.00
2023-05-14T05:07:00.759Z,100.00
2023-05-14T05:10:03.114Z,100.00
2023-05-14T05:13:05.804Z,100.00
2023-05-14T05:16:08.208Z,100.00
2023-05-14T05:19:10.870Z,100.00
2023-05-14T05:22:13.223Z,100.00
2023-05-14T05:25:15.810Z,100.00
2023-05-14T05:28:18.101Z,100.00
2023-05-14T05:31:20.943Z,100.00
2023-05-14T05:34:23.527Z,100.00
2023-05-14T05:37:26.165Z,100.00
2023-05-14T05:40:28.629Z,100.00
2023-05-14T05:43:31.155Z,100.00
2023-05-14T05:46:33.565Z,100.00
2023-05-14T05:49:37.716Z,100.00
2023-05-14T05:52:40.290Z,100.00
2023-05-14T05:55:42.866Z,100.00
2023-05-14T05:58:45.248Z,100.00
2023-05-14T06:01:48.238Z,100.00
2023-05-14T06:04:51.002Z,100.00
2023-05-14T06:07:55.906Z,100.00
2023-05-14T06:10:58.594Z,99.54
2023-05-14T06:14:00.882Z,100.00
2023-05-14T06:17:03.529Z,99.46
2023-05-14T06:20:07.896Z,100.00
2023-05-14T06:23:12.269Z,98.56
2023-05-14T06:26:14.743Z,100.00
2023-05-14T06:29:17.329Z,100.00
2023-05-14T06:32:19.599Z,100.00
2023-05-14T06:35:22.334Z,100.00
2023-05-14T06:38:25.081Z,100.00
2023-05-14T06:41:27.760Z,100.00
2023-05-14T06:44:30.118Z,100.00
2023-05-14T06:47:33.437Z,100.00
2023-05-14T06:50:36.047Z,100.00
2023-05-14T06:53:39.190Z,100.00
2023-05-14T06:56:41.434Z,100.00
2023-05-14T06:59:44.037Z,100.00
2023-05-14T07:02:46.440Z,100.00
2023-05-14T07:05:49.020Z,100.00
2023-05-14T07:08:51.389Z,100.00
2023-05-14T07:11:53.977Z,100.00
2023-05-14T07:14:57.086Z,100.00
2023-05-14T07:17:59.650Z,100.00
2023-05-14T07:21:02.024Z,100.00
2023-05-14T07:24:04.850Z,100.00
2023-05-14T07:27:08.589Z,97.70
2023-05-14T07:30:11.355Z,99.33
2023-05-14T07:33:13.695Z,99.22
2023-05-14T07:36:16.311Z,94.03
2023-05-14T07:39:18.782Z,91.34
2023-05-14T07:42:34.487Z,95.19
2023-05-14T07:45:38.601Z,90.77
2023-05-14T07:48:41.228Z,89.77
2023-05-14T07:51:43.621Z,91.49
2023-05-14T07:54:47.125Z,92.65
2023-05-14T07:57:50.292Z,92.60
2023-05-14T08:00:53.002Z,90.95
2023-05-14T08:03:55.746Z,89.27
2023-05-14T08:06:58.274Z,92.79
2023-05-14T08:10:01.098Z,93.30
2023-05-14T08:13:03.422Z,94.71
2023-05-14T08:16:07.109Z,88.20
2023-05-14T08:19:09.438Z,93.28
2023-05-14T08:22:12.125Z,90.30
2023-05-14T08:25:14.390Z,94.44
2023-05-14T08:28:16.962Z,98.19
2023-05-14T08:31:19.305Z,100.00
2023-05-14T08:34:22.517Z,97.45
2023-05-14T08:37:24.861Z,98.30
2023-05-14T08:40:27.576Z,98.67
2023-05-14T08:43:34.415Z,94.68
2023-05-14T08:46:38.691Z,100.00
2023-05-14T08:49:42.112Z,100.00
2023-05-14T08:52:44.929Z,100.00
2023-05-14T08:55:48.167Z,99.84
2023-05-14T08:58:50.823Z,100.00
2023-05-14T09:01:54.190Z,98.87
2023-05-14T09:04:57.894Z,99.82
2023-05-14T09:08:00.289Z,100.00
2023-05-14T09:11:03.061Z,100.00
2023-05-14T09:14:05.530Z,100.00
2023-05-14T09:17:08.677Z,100.00
2023-05-14T09:20:12.732Z,100.00
2023-05-14T09:23:15.686Z,100.00
2023-05-14T09:26:18.794Z,100.00
2023-05-14T09:29:21.739Z,100.00
2023-05-14T09:32:24.051Z,100.00
2023-05-14T09:35:26.921Z,100.00
2023-05-14T09:38:30.035Z,100.00
2023-05-14T09:41:32.700Z,100.00
2023-05-14T09:44:36.392Z,100.00
2023-05-14T09:47:39.778Z,100.00
2023-05-14T09:50:45.946Z,100.00
2023-05-14T09:53:49.078Z,100.00
2023-05-14T09:56:51.762Z,100.00
2023-05-14T09:59:55.267Z,100.00
2023-05-14T10:02:58.085Z,100.00
2023-05-14T10:06:04.748Z,100.00
2023-05-14T10:09:12.471Z,100.00
2023-05-14T10:12:16.735Z,100.00
2023-05-14T10:15:27.231Z,100.00
2023-05-14T10:18:31.567Z,100.00
2023-05-14T10:21:35.693Z,100.00
2023-05-14T10:24:39.137Z,100.00
2023-05-14T10:27:42.402Z,100.00
2023-05-14T10:30:46.292Z,100.00
2023-05-14T10:33:50.494Z,100.00
2023-05-14T10:36:53.178Z,100.00
2023-05-14T10:39:59.436Z,100.00
2023-05-14T10:43:02.660Z,100.00
2023-05-14T10:46:05.456Z,100.00
2023-05-14T10:49:08.094Z,100.00
2023-05-14T10:52:11.851Z,100.00
2023-05-14T10:55:15.804Z,100.00
2023-05-14T10:58:18.103Z,100.00
2023-05-14T11:01:23.860Z,100.00
2023-05-14T11:04:27.880Z,100.00
2023-05-14T11:07:40.847Z,100.00
2023-05-14T11:10:43.440Z,100.00
2023-05-14T11:13:46.227Z,100.00
2023-05-14T11:16:48.757Z,100.00
2023-05-14T11:19:51.433Z,100.00
2023-05-14T11:22:53.744Z,100.00
2023-05-14T11:25:56.761Z,100.00
2023-05-14T11:28:59.230Z,100.00
2023-05-14T11:32:02.274Z,100.00
2023-05-14T11:35:04.994Z,100.00
2023-05-14T11:38:09.194Z,100.00
2023-05-14T11:41:14.280Z,100.00
2023-05-14T11:44:17.228Z,100.00
2023-05-14T11:47:20.770Z,100.00
2023-05-14T11:50:23.654Z,100.00
2023-05-14T11:53:28.374Z,100.00
2023-05-14T11:56:31.012Z,100.00
2023-05-14T11:59:33.392Z,100.00
2023-05-14T12:02:36.272Z,100.00
2023-05-14T12:05:39.488Z,100.00
2023-05-14T12:08:41.912Z,100.00
2023-05-14T12:11:47.656Z,100.00
2023-05-14T12:14:50.371Z,100.00
2023-05-14T12:17:53.099Z,100.00
2023-05-14T12:20:55.770Z,100.00
2023-05-14T12:24:00.007Z,100.00
2023-05-14T12:27:04.128Z,100.00
2023-05-14T12:30:20.793Z,100.00
2023-05-14T12:33:24.407Z,100.00
2023-05-14T12:36:26.980Z,100.00
2023-05-14T12:39:30.134Z,100.00
2023-05-14T12:42:33.125Z,100.00
2023-05-14T12:45:35.547Z,100.00
2023-05-14T12:48:38.157Z,100.00
2023-05-14T12:51:41.006Z,100.00
2023-05-14T12:54:43.776Z,100.00
2023-05-14T12:57:46.179Z,100.00
2023-05-14T13:00:51.197Z,100.00
2023-05-14T13:03:53.649Z,100.00
2023-05-14T13:06:57.228Z,100.00
2023-05-14T13:09:59.614Z,100.00
2023-05-14T13:13:02.620Z,100.00
2023-05-14T13:16:05.244Z,100.00
2023-05-14T13:19:07.994Z,100.00
2023-05-14T13:22:10.493Z,100.00
2023-05-14T13:25:13.230Z,100.00
2023-05-14T13:28:15.545Z,100.00
2023-05-14T13:31:18.211Z,100.00
2023-05-14T13:34:20.601Z,100.00
2023-05-14T13:37:25.749Z,100.00
2023-05-14T13:40:28.073Z,100.00
2023-05-14T13:43:34.260Z,100.00
2023-05-14T13:46:36.826Z,100.00
2023-05-14T13:49:40.688Z,100.00
2023-05-14T13:52:43.019Z,100.00
2023-05-14T13:55:47.845Z,100.00
2023-05-14T13:58:51.652Z,100.00
2023-05-14T14:01:54.415Z,100.00
2023-05-14T14:04:57.287Z,100.00
2023-05-14T14:08:00.998Z,100.00
2023-05-14T14:11:16.862Z,100.00
2023-05-14T14:14:19.152Z,100.00
2023-05-14T14:17:21.885Z,100.00
2023-05-14T14:20:24.317Z,100.00
2023-05-14T14:23:27.025Z,100.00
2023-05-14T14:26:29.314Z,100.00
2023-05-14T14:29:31.862Z,100.00
2023-05-14T14:32:34.300Z,100.00
2023-05-14T14:35:37.468Z,100.00
2023-05-14T14:38:40.000Z,100.00
2023-05-14T14:41:42.573Z,100.00
2023-05-14T14:44:44.913Z,100.00
2023-05-14T14:47:49.026Z,100.00
2023-05-14T14:50:52.135Z,100.00
2023-05-14T14:53:54.976Z,100.00
2023-05-14T14:56:57.281Z,100.00
2023-05-14T15:00:01.482Z,100.00
2023-05-14T15:03:05.055Z,100.00
2023-05-14T15:06:07.998Z,100.00
2023-05-14T15:09:10.364Z,100.00
2023-05-14T15:12:14.231Z,100.00
2023-05-14T15:15:16.542Z,100.00
2023-05-14T15:18:22.456Z,100.00
2023-05-14T15:21:24.916Z,100.00
2023-05-14T15:24:27.629Z,100.00
2023-05-14T15:27:29.924Z,100.00
2023-05-14T15:30:32.667Z,100.00
2023-05-14T15:33:35.932Z,100.00
2023-05-14T15:36:38.603Z,100.00
2023-05-14T15:39:40.934Z,100.00
2023-05-14T15:42:43.849Z,100.00
2023-05-14T15:45:46.291Z,100.00
2023-05-14T15:48:48.931Z,100.00
2023-05-14T15:51:51.351Z,100.00
2023-05-14T15:54:55.930Z,100.00
2023-05-14T15:57:58.212Z,100.00
2023-05-14T16:01:01.376Z,100.00
2023-05-14T16:04:04.255Z,100.00
2023-05-14T16:07:09.910Z,100.00
2023-05-14T16:10:12.736Z,100.00
2023-05-14T16:13:15.033Z,100.00
2023-05-14T16:16:17.706Z,100.00
2023-05-14T16:19:20.056Z,100.00
2023-05-14T16:22:22.598Z,100.00
2023-05-14T16:25:24.873Z,100.00
2023-05-14T16:28:27.750Z,100.00
2023-05-14T16:31:31.540Z,100.00
2023-05-14T16:34:34.222Z,100.00
2023-05-14T16:37:36.624Z,100.00
2023-05-14T16:40:39.246Z,100.00
2023-05-14T16:43:41.685Z,100.00
2023-05-14T16:46:44.455Z,100.00
2023-05-14T16:49:46.730Z,100.00
2023-05-14T16:52:49.366Z,100.00
2023-05-14T16:55:51.708Z,100.00
2023-05-14T16:58:54.459Z,100.00
2023-05-14T17:01:56.918Z,100.00
2023-05-14T17:05:00.006Z,100.00
2023-05-14T17:08:02.662Z,100.00
2023-05-14T17:11:05.969Z,100.00
2023-05-14T17:14:08.723Z,100.00
2023-05-14T17:17:11.503Z,100.00
2023-05-14T17:20:15.910Z,100.00
2023-05-14T17:23:20.386Z,100.00
2023-05-14T17:26:22.853Z,100.00
2023-05-14T17:29:25.478Z,100.00
2023-05-14T17:32:29.397Z,100.00
2023-05-14T17:35:35.832Z,100.00
2023-05-14T17:38:39.008Z,100.00
2023-05-14T17:41:42.118Z,100.00
2023-05-14T17:44:44.601Z,100.00
2023-05-14T17:47:48.655Z,100.00
2023-05-14T17:50:51.716Z,100.00
2023-05-14T17:53:54.625Z,100.00
2023-05-14T17:56:57.054Z,100.00
2023-05-14T17:59:59.611Z,100.00
2023-05-14T18:03:02.373Z,100.00
2023-05-14T18:06:05.287Z,100.00
2023-05-14T18:09:07.968Z,100.00
2023-05-14T18:12:10.860Z,100.00
2023-05-14T18:15:13.373Z,100.00
2023-05-14T18:18:18.633Z,100.00
2023-05-14T18:21:21.085Z,100.00
2023-05-14T18:24:24.043Z,100.00
2023-05-14T18:27:26.765Z,100.00
2023-05-14T18:30:30.890Z,100.00
2023-05-14T18:33:33.760Z,100.00
2023-05-14T18:36:36.914Z,100.00
2023-05-14T18:39:40.231Z,100.00
2023-05-14T18:42:43.327Z,100.00
2023-05-14T18:45:47.349Z,100.00
2023-05-14T18:48:50.499Z,100.00
2023-05-14T18:51:53.263Z,100.00
2023-05-14T18:54:56.356Z,100.00
2023-05-14T18:57:59.120Z,100.00
2023-05-14T19:01:02.175Z,100.00
2023-05-14T19:04:06.203Z,100.00
2023-05-14T19:07:09.301Z,100.00
2023-05-14T19:10:12.007Z,100.00
2023-05-14T19:13:16.581Z,100.00
2023-05-14T19:16:19.485Z,100.00
2023-05-14T19:19:22.541Z,100.00
2023-05-14T19:22:25.866Z,100.00
2023-05-14T19:25:29.197Z,100.00
2023-05-14T19:28:32.561Z,100.00
2023-05-14T19:31:35.706Z,100.00
2023-05-14T19:34:38.443Z,100.00
2023-05-14T19:37:41.389Z,100.00
2023-05-14T19:40:45.032Z,100.00
2023-05-14T19:43:48.348Z,100.00
2023-05-14T19:46:51.041Z,100.00
2023-05-14T19:49:53.989Z,100.00
2023-05-14T19:52:57.228Z,100.00
2023-05-14T19:56:01.939Z,100.00
2023-05-14T19:59:04.812Z,100.00
2023-05-14T20:02:07.838Z,100.00
2023-05-14T20:05:10.777Z,100.00
2023-05-14T20:08:13.258Z,100.00
2023-05-14T20:11:17.957Z,100.00
2023-05-14T20:14:20.378Z,100.00
2023-05-14T20:17:23.202Z,100.00
2023-05-14T20:20:26.746Z,100.00
2023-05-14T20:23:30.655Z,100.00
2023-05-14T20:26:32.981Z,100.00
2023-05-14T20:29:35.644Z,100.00
2023-05-14T20:32:38.050Z,100.00
2023-05-14T20:35:43.763Z,100.00
2023-05-14T20:38:47.364Z,100.00
2023-05-14T20:41:49.998Z,100.00
2023-05-14T20:44:52.974Z,100.00
2023-05-14T20:47:55.596Z,100.00
2023-05-14T20:50:58.092Z,100.00
2023-05-14T20:54:00.835Z,100.00
2023-05-14T20:57:03.118Z,100.00
2023-05-14T21:00:08.607Z,100.00
2023-05-14T21:03:10.991Z,100.00
2023-05-14T21:06:13.881Z,100.00
2023-05-14T21:09:16.218Z,100.00
2023-05-14T21:12:19.245Z,100.00
2023-05-14T21:15:21.673Z,100.00
2023-05-14T21:18:26.997Z,100.00
2023-05-14T21:21:29.491Z,100.00
2023-05-14T21:24:32.117Z,100.00
2023-05-14T21:27:34.559Z,100.00
2023-05-14T21:30:37.076Z,100.00
2023-05-14T21:33:40.778Z,100.00
2023-05-14T21:36:43.451Z,100.00
2023-05-14T21:39:45.755Z,100.00
2023-05-14T21:42:48.381Z,100.00
2023-05-14T21:45:50.871Z,100.00
2023-05-14T21:48:53.548Z,100.00
2023-05-14T21:51:55.953Z,100.00
2023-05-14T21:54:58.537Z,100.00
2023-05-14T21:58:00.855Z,100.00
2023-05-14T22:01:03.541Z,100.00
2023-05-14T22:04:06.381Z,100.00
2023-05-14T22:07:08.849Z,100.00
2023-05-14T22:10:15.356Z,100.00
2023-05-14T22:13:17.664Z,100.00
2023-05-14T22:16:22.434Z,100.00
2023-05-14T22:19:25.780Z,100.00
2023-05-14T22:22:28.507Z,100.00
2023-05-14T22:25:30.977Z,100.00
2023-05-14T22:28:33.653Z,100.00
2023-05-14T22:31:36.074Z,100.00
2023-05-14T22:34:38.745Z,100.00
2023-05-14T22:37:41.087Z,100.00
2023-05-14T22:40:43.583Z,100.00
2023-05-14T22:43:48.666Z,100.00
2023-05-14T22:46:51.618Z,100.00
2023-05-14T22:49:54.923Z,100.00
2023-05-14T22:52:57.496Z,100.00
2023-05-14T22:55:59.821Z,100.00
2023-05-14T22:59:02.540Z,100.00
2023-05-14T23:02:05.173Z,100.00
2023-05-14T23:05:08.405Z,100.00
2023-05-14T23:08:10.990Z,100.00
2023-05-14T23:11:13.909Z,100.00
2023-05-14T23:14:17.927Z,100.00
2023-05-14T23:17:20.590Z,100.00
2023-05-14T23:20:22.941Z,100.00
2023-05-14T23:23:25.774Z,100.00
2023-05-14T23:26:28.190Z,100.00
2023-05-14T23:29:30.854Z,100.00
2023-05-14T23:32:33.415Z,100.00
2023-05-14T23:35:37.849Z,100.00
2023-05-14T23:38:40.676Z,100.00
2023-05-14T23:41:43.249Z,100.00
2023-05-14T23:44:45.593Z,100.00
2023-05-14T23:47:48.334Z,100.00
2023-05-14T23:50:50.814Z,100.00
2023-05-14T23:53:58.108Z,100.00
2023-05-14T23:57:03.201Z,100.00
